Terminal Aerodrome Forecast
Issued by NWS

Home | Current Version | Previous Version | Text Only | Print | Product List | Glossary On
Versions: 1 2 3 4 5 6 7 8 9 10 11 12 13 14
000
FTUS43 KDLH 242300
TAFHIB
TAF
KHIB 242340Z 2500/2524 16005KT P6SM BKN060 OVC100
     FM250300 15004KT P6SM VCSH OVC050
     FM250700 07004KT 6SM -RA BR BKN035
     FM251400 07004KT 3SM -RA BR OVC015
     FM251900 05005KT 5SM -RA BR OVC008=

USA.gov is the U.S. government's official web portal to all federal, state and local government web resources and services.